DAAGDAAS

Guest
Details From DAAG - Alger Houari Boumediene
To DAAS - Ain Arnat
Flight Number -
Tags Generated
Created
Modified
Stats Distance 108 nm / 200 km
Max Altitude 0 ft / 0 m
Waypoints 2
Social Downloads 5
Likes 0
Share VATSIM

Download

Looking for another format? Having issues loading an existing format? Contact us
Advertisement - Login to hide

Notes

Generated

Route

DAAG DAAS

ID Type Via Altitude Latitude Longitude Leg Dist Tot Dist Heading (true) Name
O DAAG APT - 0 ft / 0 m 36.69213˚ 3.17083˚ - 0 nm - -
O DAAS APT - 0 ft / 0 m 36.17790˚ 5.31377˚ 108 nm 108 nm 106° / 107° -

Altitude Profile

Advertisement - Login to hide

DAAG

Details ICAO DAAG (ALG)
Name Alger Houari Boumediene
Region Algeria
Timezone Africa/Algiers (UTC+1.0)
Stats Elevation 82 ft / 25 m (AMSL)
Location 36.697521° 3.213079°
Runways 2
Magnetic Variation 1.102° E

METAR

DAAG 230930Z 34007KT 310V010 CAVOK 25/15 Q1017

Decode

TAF

TAF DAAG 230500Z 2306/2406 VRB02KT 1000 FG FEW016 BECMG 2306/2308 6000 NSW BECMG 2308/2311 04014KT BECMG 2319/2321 VRB02KT PROB30 TEMPO 2400/2406 5000 BR

Decode

Departure Runways

ID Width Length Bearing (true) Bearing (mag) Surface Threshold Offset Overrun Length
05 197 ft / 60 m 11,459 ft / 3,493 m 52.87° 51.77° Asphalt 0 ft / 0 m 0 ft / 0 m
09 148 ft / 45 m 11,442 ft / 3,487 m 91.75° 90.65° Asphalt 0 ft / 0 m 1,017 ft / 310 m
23 197 ft / 60 m 11,459 ft / 3,493 m 232.89° 231.79° Asphalt 0 ft / 0 m 0 ft / 0 m
27 148 ft / 45 m 11,442 ft / 3,487 m 271.78° 270.68° Asphalt 0 ft / 0 m 0 ft / 0 m

DAAS

Details ICAO DAAS (QSF)
Name Ain Arnat
Region Algeria
Timezone Africa/Algiers (UTC+1.0)
Stats Elevation 3,360 ft / 1,024 m (AMSL)
Location 36.178129° 5.324493°
Runways 1
Magnetic Variation 1.520° E

METAR

DAAS 230900Z 24006KT 9999 FEW026 19/09 Q1022

Decode

TAF

TAF DAAS 230500Z 2306/2406 VRB02KT 9999 FEW023 SCT030 BECMG 2310/2312 23012KT PROB30 TEMPO 2312/2320 FEW026CB BECMG 2320/2322 VRB02KT PROB30 TEMPO 2400/2406 2000 BR SCT008

Decode

Destination Runways

ID Width Length Bearing (true) Bearing (mag) Surface Threshold Offset Overrun Length
09 125 ft / 38 m 6,320 ft / 1,926 m 88.49° 86.97° Asphalt 300 ft / 91 m 0 ft / 0 m
27 125 ft / 38 m 6,320 ft / 1,926 m 268.51° 266.99° Asphalt 329 ft / 100 m 0 ft / 0 m

Popular Alternatives